sensor_id;sensor_type;location;lat;lon;timestamp;pressure;altitude;pressure_sealevel;temperature;humidity
63901;BME280;50538;53.482;10.294;2023-02-12T00:01:42;103046.75;;;7.41;100.00
63901;BME280;50538;53.482;10.294;2023-02-12T00:12:13;103075.25;;;7.36;100.00
63901;BME280;50538;53.482;10.294;2023-02-12T00:22:51;103091.19;;;7.34;100.00
63901;BME280;50538;53.482;10.294;2023-02-12T00:33:22;103080.03;;;7.29;100.00
63901;BME280;50538;53.482;10.294;2023-02-12T00:54:06;103087.34;;;7.24;100.00
63901;BME280;50538;53.482;10.294;2023-02-12T01:04:19;103085.81;;;7.20;100.00
63901;BME280;50538;53.482;10.294;2023-02-12T01:14:42;103100.22;;;7.14;100.00
63901;BME280;50538;53.482;10.294;2023-02-12T01:24:52;103099.47;;;7.12;100.00
63901;BME280;50538;53.482;10.294;2023-02-12T01:34:56;103103.97;;;7.10;100.00
63901;BME280;50538;53.482;10.294;2023-02-12T01:55:32;103115.47;;;7.09;100.00
63901;BME280;50538;53.482;10.294;2023-02-12T02:05:46;103112.06;;;7.07;100.00
63901;BME280;50538;53.482;10.294;2023-02-12T02:16:15;103110.47;;;7.05;100.00
63901;BME280;50538;53.482;10.294;2023-02-12T02:37:31;103128.28;;;7.01;100.00
63901;BME280;50538;53.482;10.294;2023-02-12T02:48:20;103122.66;;;6.91;100.00
63901;BME280;50538;53.482;10.294;2023-02-12T02:59:06;103129.28;;;6.83;100.00
63901;BME280;50538;53.482;10.294;2023-02-12T03:20:39;103139.31;;;6.76;100.00
63901;BME280;50538;53.482;10.294;2023-02-12T03:31:02;103146.22;;;6.79;100.00
63901;BME280;50538;53.482;10.294;2023-02-12T03:41:30;103145.63;;;6.74;100.00
63901;BME280;50538;53.482;10.294;2023-02-12T03:51:44;103160.53;;;6.75;100.00
63901;BME280;50538;53.482;10.294;2023-02-12T04:02:13;103178.91;;;6.76;100.00
63901;BME280;50538;53.482;10.294;2023-02-12T04:33:16;103183.97;;;6.81;100.00
63901;BME280;50538;53.482;10.294;2023-02-12T04:43:31;103199.81;;;6.81;100.00
63901;BME280;50538;53.482;10.294;2023-02-12T04:53:58;103208.75;;;6.78;100.00
63901;BME280;50538;53.482;10.294;2023-02-12T05:03:58;103211.53;;;6.75;100.00
63901;BME280;50538;53.482;10.294;2023-02-12T05:14:27;103207.28;;;6.73;100.00
63901;BME280;50538;53.482;10.294;2023-02-12T05:24:38;103212.56;;;6.73;100.00
63901;BME280;50538;53.482;10.294;2023-02-12T05:35:00;103211.63;;;6.74;100.00
63901;BME280;50538;53.482;10.294;2023-02-12T05:45:00;103212.63;;;6.71;100.00
63901;BME280;50538;53.482;10.294;2023-02-12T05:55:21;103218.00;;;6.70;100.00
63901;BME280;50538;53.482;10.294;2023-02-12T06:05:29;103221.56;;;6.69;100.00
63901;BME280;50538;53.482;10.294;2023-02-12T06:15:50;103240.81;;;6.71;100.00
63901;BME280;50538;53.482;10.294;2023-02-12T06:26:09;103246.09;;;6.71;100.00
63901;BME280;50538;53.482;10.294;2023-02-12T06:36:17;103240.91;;;6.69;100.00
63901;BME280;50538;53.482;10.294;2023-02-12T06:46:18;103239.13;;;6.70;100.00
63901;BME280;50538;53.482;10.294;2023-02-12T06:56:29;103248.81;;;6.69;100.00
63901;BME280;50538;53.482;10.294;2023-02-12T07:06:39;103279.41;;;6.73;100.00
63901;BME280;50538;53.482;10.294;2023-02-12T07:16:53;103285.31;;;6.78;100.00
63901;BME280;50538;53.482;10.294;2023-02-12T07:38:02;103283.38;;;6.82;100.00
63901;BME280;50538;53.482;10.294;2023-02-12T07:59:12;103294.84;;;6.98;100.00
63901;BME280;50538;53.482;10.294;2023-02-12T08:09:16;103302.47;;;7.04;100.00
63901;BME280;50538;53.482;10.294;2023-02-12T08:19:18;103304.75;;;7.10;100.00
63901;BME280;50538;53.482;10.294;2023-02-12T08:29:22;103323.63;;;7.20;100.00
63901;BME280;50538;53.482;10.294;2023-02-12T08:39:25;103335.50;;;7.28;100.00
63901;BME280;50538;53.482;10.294;2023-02-12T08:49:28;103350.72;;;7.41;100.00
63901;BME280;50538;53.482;10.294;2023-02-12T08:59:36;103329.25;;;7.47;100.00
63901;BME280;50538;53.482;10.294;2023-02-12T09:09:37;103348.97;;;7.57;100.00
63901;BME280;50538;53.482;10.294;2023-02-12T09:19:37;103351.19;;;7.64;100.00
63901;BME280;50538;53.482;10.294;2023-02-12T09:29:40;103361.25;;;7.74;100.00
63901;BME280;50538;53.482;10.294;2023-02-12T09:39:40;103356.34;;;7.83;100.00
63901;BME280;50538;53.482;10.294;2023-02-12T10:00:27;103381.78;;;8.02;100.00
63901;BME280;50538;53.482;10.294;2023-02-12T10:10:52;103384.94;;;8.08;100.00
63901;BME280;50538;53.482;10.294;2023-02-12T10:31:10;103383.03;;;8.26;100.00
63901;BME280;50538;53.482;10.294;2023-02-12T10:41:15;103381.75;;;8.33;100.00
63901;BME280;50538;53.482;10.294;2023-02-12T11:01:26;103370.22;;;8.50;100.00
63901;BME280;50538;53.482;10.294;2023-02-12T11:11:29;103368.34;;;8.52;100.00
63901;BME280;50538;53.482;10.294;2023-02-12T11:21:31;103357.56;;;8.55;100.00
63901;BME280;50538;53.482;10.294;2023-02-12T11:31:33;103357.13;;;8.62;100.00
63901;BME280;50538;53.482;10.294;2023-02-12T11:41:36;103354.03;;;8.70;100.00
63901;BME280;50538;53.482;10.294;2023-02-12T11:51:37;103341.47;;;8.74;100.00
63901;BME280;50538;53.482;10.294;2023-02-12T12:01:38;103353.38;;;8.81;100.00
63901;BME280;50538;53.482;10.294;2023-02-12T12:32:28;103329.38;;;8.84;100.00
63901;BME280;50538;53.482;10.294;2023-02-12T13:04:28;103302.41;;;8.91;100.00
63901;BME280;50538;53.482;10.294;2023-02-12T13:24:44;103292.63;;;9.08;100.00
63901;BME280;50538;53.482;10.294;2023-02-12T13:34:47;103289.97;;;9.08;100.00
63901;BME280;50538;53.482;10.294;2023-02-12T14:05:23;103276.16;;;9.03;100.00
63901;BME280;50538;53.482;10.294;2023-02-12T14:15:32;103270.16;;;8.99;100.00
63901;BME280;50538;53.482;10.294;2023-02-12T14:25:44;103274.69;;;8.97;100.00
63901;BME280;50538;53.482;10.294;2023-02-12T14:35:47;103273.94;;;8.95;100.00
63901;BME280;50538;53.482;10.294;2023-02-12T14:56:21;103282.53;;;8.84;100.00
63901;BME280;50538;53.482;10.294;2023-02-12T15:06:27;103281.09;;;8.79;100.00
63901;BME280;50538;53.482;10.294;2023-02-12T15:16:42;103283.09;;;8.75;100.00
63901;BME280;50538;53.482;10.294;2023-02-12T15:26:50;103287.75;;;8.72;100.00
63901;BME280;50538;53.482;10.294;2023-02-12T15:36:58;103288.69;;;8.71;100.00
63901;BME280;50538;53.482;10.294;2023-02-12T15:47:10;103290.84;;;8.64;100.00
63901;BME280;50538;53.482;10.294;2023-02-12T15:57:18;103287.78;;;8.56;100.00
63901;BME280;50538;53.482;10.294;2023-02-12T16:07:20;103300.44;;;8.51;100.00
63901;BME280;50538;53.482;10.294;2023-02-12T16:17:45;103297.28;;;8.44;100.00
63901;BME280;50538;53.482;10.294;2023-02-12T16:28:23;103321.66;;;8.35;100.00
63901;BME280;50538;53.482;10.294;2023-02-12T16:38:52;103320.13;;;8.31;100.00
63901;BME280;50538;53.482;10.294;2023-02-12T16:48:55;103324.81;;;8.26;100.00
63901;BME280;50538;53.482;10.294;2023-02-12T16:58:57;103330.19;;;8.24;100.00
63901;BME280;50538;53.482;10.294;2023-02-12T17:08:58;103341.16;;;8.18;100.00
63901;BME280;50538;53.482;10.294;2023-02-12T17:18:59;103322.03;;;8.13;100.00
63901;BME280;50538;53.482;10.294;2023-02-12T17:28:59;103340.72;;;8.10;100.00
63901;BME280;50538;53.482;10.294;2023-02-12T17:39:06;103344.31;;;8.09;100.00
63901;BME280;50538;53.482;10.294;2023-02-12T17:49:06;103358.56;;;8.07;100.00
63901;BME280;50538;53.482;10.294;2023-02-12T17:59:08;103353.38;;;8.05;100.00
63901;BME280;50538;53.482;10.294;2023-02-12T18:09:09;103361.63;;;7.99;100.00
63901;BME280;50538;53.482;10.294;2023-02-12T18:19:09;103359.16;;;7.96;100.00
63901;BME280;50538;53.482;10.294;2023-02-12T18:29:09;103377.84;;;7.93;100.00
63901;BME280;50538;53.482;10.294;2023-02-12T18:39:10;103378.88;;;7.90;100.00
63901;BME280;50538;53.482;10.294;2023-02-12T18:49:12;103378.19;;;7.87;100.00
63901;BME280;50538;53.482;10.294;2023-02-12T18:59:14;103382.69;;;7.85;100.00
63901;BME280;50538;53.482;10.294;2023-02-12T19:09:16;103381.25;;;7.79;100.00
63901;BME280;50538;53.482;10.294;2023-02-12T19:19:19;103378.16;;;7.71;100.00
63901;BME280;50538;53.482;10.294;2023-02-12T19:29:20;103387.19;;;7.67;100.00
63901;BME280;50538;53.482;10.294;2023-02-12T19:39:22;103393.59;;;7.63;100.00
63901;BME280;50538;53.482;10.294;2023-02-12T19:49:25;103389.41;;;7.59;100.00
63901;BME280;50538;53.482;10.294;2023-02-12T19:59:25;103377.22;;;7.56;100.00
63901;BME280;50538;53.482;10.294;2023-02-12T20:09:26;103396.72;;;7.54;100.00
63901;BME280;50538;53.482;10.294;2023-02-12T20:19:29;103394.25;;;7.51;100.00
63901;BME280;50538;53.482;10.294;2023-02-12T20:29:30;103395.19;;;7.50;100.00
63901;BME280;50538;53.482;10.294;2023-02-12T20:39:30;103383.75;;;7.49;100.00
63901;BME280;50538;53.482;10.294;2023-02-12T20:49:31;103390.22;;;7.44;100.00
63901;BME280;50538;53.482;10.294;2023-02-12T20:59:31;103386.72;;;7.43;100.00
63901;BME280;50538;53.482;10.294;2023-02-12T21:09:31;103374.59;;;7.39;100.00
63901;BME280;50538;53.482;10.294;2023-02-12T21:19:32;103384.47;;;7.36;100.00
63901;BME280;50538;53.482;10.294;2023-02-12T21:29:34;103374.91;;;7.33;100.00
63901;BME280;50538;53.482;10.294;2023-02-12T21:39:34;103388.13;;;7.33;100.00
63901;BME280;50538;53.482;10.294;2023-02-12T21:49:34;103385.56;;;7.31;100.00
63901;BME280;50538;53.482;10.294;2023-02-12T21:59:35;103381.22;;;7.30;100.00
63901;BME280;50538;53.482;10.294;2023-02-12T22:09:35;103375.16;;;7.28;100.00
63901;BME280;50538;53.482;10.294;2023-02-12T22:19:35;103368.31;;;7.24;100.00
63901;BME280;50538;53.482;10.294;2023-02-12T22:29:36;103369.31;;;7.22;100.00
63901;BME280;50538;53.482;10.294;2023-02-12T22:39:36;103371.97;;;7.22;100.00
63901;BME280;50538;53.482;10.294;2023-02-12T22:49:36;103366.69;;;7.22;100.00
63901;BME280;50538;53.482;10.294;2023-02-12T22:59:36;103361.56;;;7.19;100.00
63901;BME280;50538;53.482;10.294;2023-02-12T23:09:38;103369.56;;;7.17;100.00
63901;BME280;50538;53.482;10.294;2023-02-12T23:19:38;103369.72;;;7.14;100.00
63901;BME280;50538;53.482;10.294;2023-02-12T23:29:39;103373.38;;;7.12;100.00
63901;BME280;50538;53.482;10.294;2023-02-12T23:39:39;103376.16;;;7.09;100.00
63901;BME280;50538;53.482;10.294;2023-02-12T23:49:39;103377.03;;;7.09;100.00
63901;BME280;50538;53.482;10.294;2023-02-12T23:59:40;103367.38;;;7.08;100.00
